Time;durP1;ratioP1;P1;durP2;ratioP2;P2;SDS_P1;SDS_P2;PMS_P1;PMS_P2;Temp;Humidity;BMP_temperature;BMP_pressure;BME280_temperature;BME280_humidity;BME280_pressure;Samples;Min_cycle;Max_cycle;Signal;HPM_P1;HPM_P2
2022/11/14 00:01:37;;;;;;;10.80;4.40;;;;;;;10.02;78.79;101124.25;106097;1289;59033;-79
2022/11/14 00:04:48;;;;;;;9.60;4.50;;;;;;;10.02;78.62;101127.99;106074;1288;73813;-81
2022/11/14 00:07:54;;;;;;;11.80;5.00;;;;;;;10.01;78.73;101119.38;106054;1289;66203;-81
2022/11/14 00:11:00;;;;;;;9.90;4.40;;;;;;;9.99;78.97;101115.79;106082;1287;71165;-81
2022/11/14 00:14:11;;;;;;;12.60;5.00;;;;;;;9.98;78.69;101115.30;106089;1289;59751;-79
2022/11/14 00:17:18;;;;;;;13.80;5.20;;;;;;;9.97;78.53;101112.88;106077;1289;59079;-81
2022/11/14 00:20:24;;;;;;;10.70;5.10;;;;;;;9.96;78.63;101107.25;106145;1281;70392;-78
2022/11/14 00:23:31;;;;;;;11.50;5.10;;;;;;;9.97;78.67;101107.91;106070;1290;68814;-79
2022/11/14 00:26:38;;;;;;;11.30;5.30;;;;;;;9.96;78.48;101108.18;106063;1275;73906;-79
2022/11/14 00:29:44;;;;;;;10.50;4.90;;;;;;;9.95;78.51;101110.52;106034;1292;59630;-81
2022/11/14 00:32:51;;;;;;;12.40;5.00;;;;;;;9.96;78.57;101112.77;106050;1285;60122;-81
2022/11/14 00:35:57;;;;;;;13.60;5.10;;;;;;;9.97;78.30;101100.84;106080;1287;70427;-80
2022/11/14 00:39:03;;;;;;;11.70;4.40;;;;;;;9.97;78.02;101100.10;105301;1292;1015626;-79
2022/11/14 00:42:09;;;;;;;12.60;5.00;;;;;;;9.95;78.32;101093.52;106076;1285;72745;-80
2022/11/14 00:45:15;;;;;;;9.80;4.50;;;;;;;9.92;78.10;101090.50;106094;1287;58134;-79
2022/11/14 00:48:22;;;;;;;11.50;4.90;;;;;;;9.89;78.21;101092.94;106092;1289;60404;-79
2022/11/14 00:51:30;;;;;;;11.60;5.40;;;;;;;9.90;78.23;101091.83;106101;1283;71941;-80
2022/11/14 00:54:39;;;;;;;12.80;4.20;;;;;;;9.90;78.17;101089.00;106048;1289;68025;-78
2022/11/14 00:57:45;;;;;;;12.20;5.30;;;;;;;9.89;78.36;101090.11;106076;1295;71066;-82
2022/11/14 01:00:52;;;;;;;10.90;5.20;;;;;;;9.89;78.25;101093.85;105951;1289;60903;-79
2022/11/14 01:03:58;;;;;;;12.20;5.50;;;;;;;9.86;78.17;101090.44;106011;1292;61574;-79
2022/11/14 01:07:04;;;;;;;12.30;5.70;;;;;;;9.84;77.77;101086.52;106091;1287;72909;-80
2022/11/14 01:10:10;;;;;;;13.40;6.20;;;;;;;9.82;78.04;101088.20;106068;1290;68090;-79
2022/11/14 01:13:17;;;;;;;11.90;5.50;;;;;;;9.81;77.79;101080.86;106073;1288;72578;-78
2022/11/14 01:16:23;;;;;;;11.00;5.90;;;;;;;9.79;77.89;101084.33;106060;1295;60778;-78
2022/11/14 01:19:30;;;;;;;15.40;6.70;;;;;;;9.78;77.94;101081.70;106049;1289;60149;-79
2022/11/14 01:22:36;;;;;;;15.60;6.90;;;;;;;9.79;77.95;101071.02;106075;1284;73947;-78
2022/11/14 01:25:43;;;;;;;12.90;6.60;;;;;;;9.80;77.89;101067.63;106065;1292;68220;-79
2022/11/14 01:28:49;;;;;;;12.80;7.00;;;;;;;9.78;78.01;101069.15;106044;1292;71442;-79
2022/11/14 01:31:56;;;;;;;15.60;7.20;;;;;;;9.76;77.82;101067.66;106066;1285;58997;-79
2022/11/14 01:35:03;;;;;;;14.60;6.20;;;;;;;9.76;77.98;101065.02;106053;1286;61596;-80
2022/11/14 01:38:14;;;;;;;13.10;5.80;;;;;;;9.73;76.89;101063.92;106085;1289;74290;-79
2022/11/14 01:41:21;;;;;;;13.10;5.90;;;;;;;9.73;76.89;101060.73;106032;1294;67837;-80
2022/11/14 01:44:57;;;;;;;12.60;6.10;;;;;;;9.74;77.27;101060.36;106066;1288;72854;-79
2022/11/14 01:48:03;;;;;;;11.80;5.60;;;;;;;9.71;76.96;101057.82;106081;1287;59608;-78
2022/11/14 01:51:28;;;;;;;10.80;4.90;;;;;;;9.70;76.98;101054.15;106077;1282;61552;-79
2022/11/14 01:54:39;;;;;;;11.50;4.30;;;;;;;9.69;76.73;101047.00;106035;1292;73231;-80
2022/11/14 01:57:47;;;;;;;11.90;4.60;;;;;;;9.69;76.91;101041.48;106037;1292;68935;-79
2022/11/14 02:00:55;;;;;;;10.60;4.10;;;;;;;9.65;75.63;101036.38;106015;1287;73787;-80
2022/11/14 02:04:04;;;;;;;9.80;4.10;;;;;;;9.64;75.93;101036.98;106016;1289;57730;-80
2022/11/14 02:07:13;;;;;;;10.60;3.80;;;;;;;9.62;75.96;101029.64;106081;1289;61643;-81
2022/11/14 02:10:21;;;;;;;8.90;3.70;;;;;;;9.62;76.06;101021.17;106009;1289;71784;-80
2022/11/14 02:13:27;;;;;;;9.40;3.80;;;;;;;9.61;76.08;101018.89;106056;1292;69186;-79
2022/11/14 02:16:34;;;;;;;8.80;4.00;;;;;;;9.62;76.15;101011.61;106071;1295;73756;-80
2022/11/14 02:19:51;;;;;;;10.50;4.00;;;;;;;9.62;76.03;101009.84;106181;1287;57230;-78
2022/11/14 02:22:58;;;;;;;10.00;4.00;;;;;;;9.59;75.88;101005.38;106099;1289;60100;-79
2022/11/14 02:26:04;;;;;;;8.80;3.50;;;;;;;9.57;75.62;101004.83;106023;1287;72715;-78
2022/11/14 02:29:11;;;;;;;9.20;3.80;;;;;;;9.56;75.76;101001.64;106100;1291;67905;-79
2022/11/14 02:32:17;;;;;;;9.40;3.70;;;;;;;9.55;75.74;101000.30;106060;1295;73927;-80
2022/11/14 02:35:23;;;;;;;10.30;3.70;;;;;;;9.54;75.82;100992.91;106067;1289;58779;-79
2022/11/14 02:38:30;;;;;;;8.70;3.30;;;;;;;9.52;75.79;100993.38;106052;1292;59474;-79
2022/11/14 02:41:37;;;;;;;8.50;3.20;;;;;;;9.49;75.70;100990.89;106025;1292;73138;-81
2022/11/14 02:44:46;;;;;;;10.50;3.60;;;;;;;9.47;75.63;100988.16;106097;1284;68789;-80
2022/11/14 02:47:53;;;;;;;9.10;3.30;;;;;;;9.45;75.64;100988.82;106091;1284;72687;-79
2022/11/14 02:50:59;;;;;;;11.30;3.80;;;;;;;9.45;76.10;100987.58;106045;1290;58183;-80
2022/11/14 02:54:06;;;;;;;9.90;3.50;;;;;;;9.42;75.60;100984.92;106093;1289;60364;-80
2022/11/14 02:57:12;;;;;;;8.50;3.20;;;;;;;9.39;75.46;100983.36;106078;1291;72837;-80
2022/11/14 03:00:18;;;;;;;8.30;3.10;;;;;;;9.37;75.72;100982.38;106098;1289;67809;-80
2022/11/14 03:03:25;;;;;;;10.70;3.40;;;;;;;9.38;75.49;100978.25;106052;1294;73467;-80
2022/11/14 03:06:31;;;;;;;9.80;3.30;;;;;;;9.39;75.69;100984.94;106064;1289;58143;-81
2022/11/14 03:09:37;;;;;;;9.20;3.20;;;;;;;9.40;75.67;100980.65;106097;1292;60526;-80
2022/11/14 03:12:43;;;;;;;9.80;3.80;;;;;;;9.39;75.25;100978.04;106000;1288;73139;-80
2022/11/14 03:15:50;;;;;;;9.10;2.90;;;;;;;9.33;75.02;100979.79;106115;1289;67079;-79
2022/11/14 03:18:56;;;;;;;9.90;3.50;;;;;;;9.29;75.45;100982.15;106156;1289;70850;-79
2022/11/14 03:22:03;;;;;;;10.90;4.10;;;;;;;9.26;75.36;100983.20;106098;1288;57634;-78
2022/11/14 03:25:09;;;;;;;10.60;4.00;;;;;;;9.21;75.24;100982.05;106126;1288;58870;-81
2022/11/14 03:28:18;;;;;;;10.10;4.70;;;;;;;9.17;74.96;100975.54;106061;1289;71918;-79
2022/11/14 03:31:24;;;;;;;12.50;4.60;;;;;;;9.14;75.00;100968.98;106053;1289;67562;-79
2022/11/14 03:34:31;;;;;;;10.40;4.50;;;;;;;9.09;75.17;100973.39;106055;1292;70292;-79
2022/11/14 03:37:37;;;;;;;11.40;5.00;;;;;;;9.06;75.01;100974.59;106035;1291;57909;-80
2022/11/14 03:40:44;;;;;;;12.40;4.70;;;;;;;9.06;75.32;100963.65;106091;1287;59256;-79
2022/11/14 03:43:50;;;;;;;10.00;3.90;;;;;;;9.06;75.17;100967.02;105961;1298;71764;-79
2022/11/14 03:46:57;;;;;;;11.20;4.70;;;;;;;9.05;75.40;100968.10;106045;1288;66322;-79
2022/11/14 03:50:03;;;;;;;10.80;5.20;;;;;;;9.01;75.18;100962.31;106100;1288;71408;-79
2022/11/14 03:53:10;;;;;;;12.20;5.20;;;;;;;8.99;75.15;100963.68;106103;1287;58903;-80
2022/11/14 03:56:16;;;;;;;10.60;4.90;;;;;;;8.98;75.41;100961.05;106167;1287;59038;-80
2022/11/14 03:59:23;;;;;;;9.50;4.50;;;;;;;8.97;75.66;100958.99;106034;1288;73262;-80
2022/11/14 04:02:29;;;;;;;12.90;5.00;;;;;;;8.98;75.72;100958.77;106101;1289;66465;-80
2022/11/14 04:05:36;;;;;;;10.80;5.00;;;;;;;8.98;75.94;100951.67;106062;1294;71468;-80
2022/11/14 04:08:42;;;;;;;9.90;4.70;;;;;;;8.97;75.75;100948.36;105988;1294;58118;-84
2022/11/14 04:11:48;;;;;;;11.60;4.80;;;;;;;8.98;76.04;100950.23;106012;1289;60197;-82
2022/11/14 04:14:55;;;;;;;12.60;5.50;;;;;;;8.96;75.91;100950.92;106010;1288;71492;-84
2022/11/14 04:18:01;;;;;;;12.50;5.50;;;;;;;8.93;75.86;100944.01;106063;1290;68749;-81
2022/11/14 04:21:07;;;;;;;11.70;5.70;;;;;;;8.92;75.96;100945.85;106020;1292;71066;-79
2022/11/14 04:24:13;;;;;;;10.90;5.10;;;;;;;8.89;76.38;100940.70;106009;1292;59618;-80
2022/11/14 04:27:20;;;;;;;12.70;5.20;;;;;;;8.87;76.44;100935.84;106102;1287;60242;-81
2022/11/14 04:30:26;;;;;;;12.60;5.50;;;;;;;8.87;76.75;100933.57;106072;1287;74232;-80
2022/11/14 04:33:39;;;;;;;14.80;6.60;;;;;;;8.85;76.73;100928.89;106054;1287;69054;-79
2022/11/14 04:36:46;;;;;;;14.90;6.40;;;;;;;8.80;76.69;100921.91;106082;1281;71113;-81
2022/11/14 04:39:53;;;;;;;14.20;7.00;;;;;;;8.77;76.86;100918.55;106042;1289;57302;-80
2022/11/14 04:42:59;;;;;;;13.50;5.90;;;;;;;8.77;77.06;100919.23;106086;1287;61383;-80
2022/11/14 04:46:06;;;;;;;13.90;6.00;;;;;;;8.77;77.28;100917.49;106030;1289;72199;-81
2022/11/14 04:49:12;;;;;;;13.70;6.60;;;;;;;8.73;77.34;100914.90;106096;1292;67531;-80
2022/11/14 04:52:19;;;;;;;12.40;6.10;;;;;;;8.68;76.98;100910.55;106066;1289;72825;-82
2022/11/14 04:55:25;;;;;;;15.80;6.60;;;;;;;8.66;77.11;100912.57;106081;1287;59614;-81
2022/11/14 04:58:31;;;;;;;14.70;6.50;;;;;;;8.64;77.06;100909.01;106091;1295;61806;-81
2022/11/14 05:01:38;;;;;;;13.80;6.70;;;;;;;8.63;77.31;100903.73;106076;1282;70858;-81
2022/11/14 05:04:47;;;;;;;13.70;6.40;;;;;;;8.63;77.25;100905.16;106097;1289;66578;-82
2022/11/14 05:07:54;;;;;;;15.60;7.20;;;;;;;8.63;77.48;100901.29;106070;1284;70779;-81
2022/11/14 05:11:00;;;;;;;15.00;7.20;;;;;;;8.63;77.75;100903.92;106006;1297;59365;-81
2022/11/14 05:14:07;;;;;;;15.10;6.30;;;;;;;8.64;77.75;100903.51;106074;1283;60427;-80
2022/11/14 05:17:14;;;;;;;15.00;6.40;;;;;;;8.64;77.54;100903.32;106088;1289;73076;-80
2022/11/14 05:20:20;;;;;;;14.80;7.00;;;;;;;8.59;76.94;100901.33;106019;1292;69425;-82
2022/11/14 05:23:27;;;;;;;14.90;6.70;;;;;;;8.55;77.06;100898.17;106060;1289;72690;-81
2022/11/14 05:26:33;;;;;;;16.00;7.40;;;;;;;8.50;77.17;100896.33;106079;1291;58207;-81
2022/11/14 05:29:40;;;;;;;13.90;5.70;;;;;;;8.50;77.21;100897.05;106057;1295;60274;-81
2022/11/14 05:32:46;;;;;;;15.70;6.90;;;;;;;8.49;77.59;100895.84;106079;1294;73565;-80
2022/11/14 05:35:52;;;;;;;13.20;6.10;;;;;;;8.50;77.52;100889.96;106094;1289;67742;-80
2022/11/14 05:38:59;;;;;;;14.00;7.40;;;;;;;8.49;77.95;100890.58;105952;1292;72401;-79
2022/11/14 05:42:05;;;;;;;16.10;7.90;;;;;;;8.45;78.24;100892.68;106065;1292;59380;-79
2022/11/14 05:45:11;;;;;;;18.40;7.90;;;;;;;8.46;78.28;100894.26;105938;1287;177626;-80
2022/11/14 05:48:18;;;;;;;17.20;7.10;;;;;;;8.43;78.72;100893.85;106086;1291;71999;-80
2022/11/14 05:51:24;;;;;;;19.30;7.20;;;;;;;8.41;79.22;100896.43;106092;1289;67945;-81
2022/11/14 05:54:31;;;;;;;14.90;7.40;;;;;;;8.41;79.35;100893.28;106019;1290;71486;-81
2022/11/14 05:57:37;;;;;;;18.30;8.00;;;;;;;8.39;79.79;100896.02;106060;1287;59303;-81
2022/11/14 06:00:44;;;;;;;17.70;7.90;;;;;;;8.36;81.12;100898.86;106063;1292;59092;-78
2022/11/14 06:03:58;;;;;;;18.10;8.10;;;;;;;8.33;81.50;100896.69;106009;1289;73156;-82
2022/11/14 06:07:05;;;;;;;21.30;7.80;;;;;;;8.35;81.12;100893.95;106034;1295;66536;-80
2022/11/14 06:10:12;;;;;;;19.40;8.40;;;;;;;8.34;81.99;100897.21;106019;1292;71357;-81
2022/11/14 06:13:18;;;;;;;18.50;8.10;;;;;;;8.33;82.30;100894.25;106018;1292;59605;-81
2022/11/14 06:16:25;;;;;;;20.30;8.30;;;;;;;8.32;82.45;100893.38;106015;1289;60248;-79
2022/11/14 06:19:31;;;;;;;19.50;8.40;;;;;;;8.34;82.44;100891.86;105999;1287;71946;-79
2022/11/14 06:22:39;;;;;;;20.00;9.10;;;;;;;8.37;82.74;100896.19;106008;1290;69177;-81
2022/11/14 06:25:46;;;;;;;21.20;9.10;;;;;;;8.35;83.20;100895.16;106020;1290;72607;-80
2022/11/14 06:28:52;;;;;;;22.00;9.60;;;;;;;8.33;83.31;100894.38;106059;1298;58749;-81
2022/11/14 06:31:59;;;;;;;21.10;8.80;;;;;;;8.35;83.38;100897.48;106050;1290;60335;-80
2022/11/14 06:35:07;;;;;;;24.10;10.70;;;;;;;8.37;83.69;100899.70;106061;1289;73271;-80
2022/11/14 06:38:13;;;;;;;22.20;10.70;;;;;;;8.35;83.76;100895.35;106152;1284;66512;-81
2022/11/14 06:41:21;;;;;;;23.10;10.20;;;;;;;8.31;83.94;100894.14;106331;1283;72817;-80
2022/11/14 06:44:28;;;;;;;21.50;10.70;;;;;;;8.29;84.15;100896.04;106164;1281;59320;-80
2022/11/14 06:47:36;;;;;;;26.30;10.60;;;;;;;8.30;84.13;100897.05;106296;1288;60184;-82
2022/11/14 06:50:43;;;;;;;23.90;10.80;;;;;;;8.32;83.89;100899.45;106150;1289;72978;-80
2022/11/14 06:53:49;;;;;;;26.30;11.20;;;;;;;8.31;84.20;100904.94;106129;1289;67805;-81
2022/11/14 06:56:56;;;;;;;23.90;11.30;;;;;;;8.30;84.41;100906.92;105951;1287;71341;-82
2022/11/14 07:00:03;;;;;;;26.00;11.80;;;;;;;8.32;84.23;100908.05;106080;1285;57247;-75
2022/11/14 07:03:09;;;;;;;20.70;10.30;;;;;;;8.33;84.39;100906.95;105980;1297;60496;-76
2022/11/14 07:06:22;;;;;;;27.10;11.70;;;;;;;8.35;84.11;100904.69;106047;1281;71389;-74
2022/11/14 07:09:29;;;;;;;24.10;10.60;;;;;;;8.42;84.60;100902.95;106085;1289;66414;-76
2022/11/14 07:12:36;;;;;;;28.00;13.90;;;;;;;8.43;84.53;100904.48;106093;1289;70665;-74
2022/11/14 07:15:53;;;;;;;24.30;11.40;;;;;;;8.44;84.58;100902.80;106055;1282;57602;-72
2022/11/14 07:19:00;;;;;;;27.10;11.80;;;;;;;8.46;84.61;100903.25;106064;1292;60539;-73
2022/11/14 07:22:06;;;;;;;22.80;10.70;;;;;;;8.41;85.15;100898.76;106051;1289;72871;-73
2022/11/14 07:25:13;;;;;;;22.40;11.20;;;;;;;8.35;85.59;100896.96;106034;1292;69048;-74
2022/11/14 07:28:19;;;;;;;25.70;12.10;;;;;;;8.35;85.74;100900.86;106030;1287;72428;-72
2022/11/14 07:31:26;;;;;;;24.10;12.40;;;;;;;8.37;85.99;100900.74;106033;1289;61123;-73
2022/11/14 07:34:32;;;;;;;26.00;11.70;;;;;;;8.35;86.34;100897.81;106041;1284;60617;-77
2022/11/14 07:37:39;;;;;;;26.80;12.90;;;;;;;8.32;86.38;100887.73;106062;1284;73097;-79
2022/11/14 07:40:57;;;;;;;25.40;12.40;;;;;;;8.26;86.92;100886.32;106073;1289;67763;-78
2022/11/14 07:44:05;;;;;;;25.10;12.10;;;;;;;8.27;86.85;100885.23;106067;1284;71480;-80
2022/11/14 07:47:12;;;;;;;29.10;12.80;;;;;;;8.27;86.94;100879.33;106046;1289;59346;-79
2022/11/14 07:50:18;;;;;;;27.40;12.50;;;;;;;8.31;87.00;100878.98;106006;1291;61353;-80
2022/11/14 07:53:26;;;;;;;25.90;11.80;;;;;;;8.33;86.81;100879.72;106031;1297;72909;-79
2022/11/14 07:56:33;;;;;;;28.50;12.80;;;;;;;8.36;86.87;100880.98;106091;1289;66562;-78
2022/11/14 07:59:39;;;;;;;27.80;13.40;;;;;;;8.34;87.35;100878.44;106052;1289;71449;-79
2022/11/14 08:02:46;;;;;;;30.00;12.20;;;;;;;8.32;87.28;100876.92;106062;1284;59236;-79
2022/11/14 08:06:05;;;;;;;23.90;12.00;;;;;;;8.31;87.94;100870.81;106077;1284;58987;-78
2022/11/14 08:09:12;;;;;;;26.90;12.70;;;;;;;8.29;88.35;100868.27;106063;1295;74115;-78
2022/11/14 08:12:18;;;;;;;25.30;11.80;;;;;;;8.28;88.38;100869.58;106063;1281;67511;-79
2022/11/14 08:15:25;;;;;;;22.10;10.20;;;;;;;8.26;88.57;100870.74;106042;1289;74036;-79
2022/11/14 08:18:31;;;;;;;25.60;12.40;;;;;;;8.25;89.04;100860.58;106023;1290;58315;-78
2022/11/14 08:21:38;;;;;;;26.20;12.60;;;;;;;8.24;88.94;100860.77;106042;1292;60114;-80
2022/11/14 08:24:44;;;;;;;25.80;11.10;;;;;;;8.24;88.77;100859.52;106053;1292;73022;-79
2022/11/14 08:27:52;;;;;;;23.50;11.40;;;;;;;8.26;89.12;100853.98;106081;1295;67852;-78
2022/11/14 08:31:03;;;;;;;24.00;10.90;;;;;;;8.24;89.11;100851.58;105980;1281;72865;-79
2022/11/14 08:34:10;;;;;;;23.10;11.30;;;;;;;8.22;89.34;100845.86;105973;1289;60783;-78
2022/11/14 08:37:16;;;;;;;21.30;9.80;;;;;;;8.24;89.52;100839.58;106083;1282;59141;-79
2022/11/14 08:40:23;;;;;;;20.80;10.20;;;;;;;8.22;89.11;100838.83;106058;1288;73047;-79
2022/11/14 08:43:31;;;;;;;21.80;10.30;;;;;;;8.20;88.61;100835.91;106058;1291;66479;-78
2022/11/14 08:46:37;;;;;;;21.00;10.60;;;;;;;8.24;88.50;100824.89;105994;1289;72614;-78
2022/11/14 08:49:46;;;;;;;22.60;11.30;;;;;;;8.30;88.08;100816.26;106033;1289;59752;-79
2022/11/14 08:52:53;;;;;;;20.20;10.00;;;;;;;8.33;87.98;100814.48;106077;1289;60018;-76
2022/11/14 08:55:59;;;;;;;22.30;10.90;;;;;;;8.32;86.85;100811.02;106050;1292;71735;-74
2022/11/14 08:59:06;;;;;;;21.70;10.60;;;;;;;8.31;86.38;100803.97;106049;1291;67310;-73
2022/11/14 09:02:12;;;;;;;19.10;9.30;;;;;;;8.34;86.23;100805.77;106046;1289;72663;-74
2022/11/14 09:05:19;;;;;;;19.20;9.60;;;;;;;8.37;85.75;100805.11;105983;1289;59800;-73
2022/11/14 09:08:26;;;;;;;18.80;9.00;;;;;;;8.39;86.14;100798.23;106052;1289;60262;-75
2022/11/14 09:11:33;;;;;;;18.30;9.30;;;;;;;8.41;85.40;100792.62;106069;1288;73146;-73
2022/11/14 09:14:39;;;;;;;19.40;9.60;;;;;;;8.38;84.89;100792.98;106044;1289;69332;-72
2022/11/14 09:17:45;;;;;;;17.50;8.70;;;;;;;8.41;84.97;100788.20;106052;1287;72598;-74
2022/11/14 09:20:52;;;;;;;19.70;9.60;;;;;;;8.43;84.95;100791.30;106055;1288;60681;-73
2022/11/14 09:24:01;;;;;;;19.10;9.40;;;;;;;8.43;85.03;100785.83;106071;1292;60308;-72
2022/11/14 09:27:08;;;;;;;18.90;9.30;;;;;;;8.50;84.71;100784.55;106067;1290;73259;-73
2022/11/14 09:30:14;;;;;;;16.90;8.70;;;;;;;8.59;84.78;100777.70;106027;1284;69409;-72
2022/11/14 09:33:20;;;;;;;18.50;8.90;;;;;;;8.62;83.57;100777.13;106039;1287;72856;-75
2022/11/14 09:36:26;;;;;;;17.30;8.90;;;;;;;8.60;82.72;100775.52;105983;1292;59665;-75
2022/11/14 09:39:36;;;;;;;19.70;8.70;;;;;;;8.63;82.84;100772.16;105978;1284;59051;-75
2022/11/14 09:43:22;;;;;;;18.30;9.60;;;;;;;8.59;81.86;100773.06;106000;1289;72754;-73
2022/11/14 09:46:46;;;;;;;18.60;9.20;;;;;;;8.61;82.07;100774.73;106002;1291;65569;-74
2022/11/14 09:50:03;;;;;;;19.70;9.50;;;;;;;8.61;82.21;100777.54;105905;1285;72808;-73
2022/11/14 09:53:27;;;;;;;16.80;8.50;;;;;;;8.61;82.37;100770.67;105851;1291;60848;-75
2022/11/14 09:56:33;;;;;;;19.50;9.70;;;;;;;8.57;82.94;100771.47;105927;1292;59044;-74
2022/11/14 09:59:40;;;;;;;15.40;8.10;;;;;;;8.55;82.77;100767.67;105990;1290;73101;-73
2022/11/14 10:03:28;;;;;;;16.10;7.60;;;;;;;8.51;81.91;100766.10;105995;1288;67836;-75
2022/11/14 10:06:52;;;;;;;15.10;7.70;;;;;;;8.43;82.08;100764.76;105980;1291;72724;-74
2022/11/14 10:10:13;;;;;;;15.00;7.20;;;;;;;8.44;82.47;100760.98;105937;1291;58322;-73
2022/11/14 10:13:34;;;;;;;17.30;8.10;;;;;;;8.53;82.39;100756.08;105981;1283;60509;-75
2022/11/14 10:17:07;;;;;;;13.80;7.40;;;;;;;8.61;81.45;100740.40;105986;1292;74021;-79
2022/11/14 10:20:43;;;;;;;12.90;7.10;;;;;;;8.70;81.22;100733.88;106016;1288;66514;-78
2022/11/14 10:24:08;;;;;;;15.60;7.90;;;;;;;8.75;80.86;100729.48;104500;1291;1015366;-80
2022/11/14 10:27:42;;;;;;;13.40;7.10;;;;;;;8.81;80.02;100729.33;105978;1282;59641;-79
2022/11/14 10:31:04;;;;;;;12.00;6.20;;;;;;;8.85;79.91;100721.27;105971;1284;61656;-78
2022/11/14 10:34:29;;;;;;;14.60;7.30;;;;;;;8.93;79.57;100715.75;105961;1288;74022;-77
2022/11/14 10:38:06;;;;;;;14.40;7.30;;;;;;;8.98;79.00;100712.41;106002;1289;66407;-77
2022/11/14 10:41:14;;;;;;;13.80;6.50;;;;;;;9.04;78.87;100705.48;106063;1289;73391;-77
2022/11/14 10:45:03;;;;;;;14.60;7.30;;;;;;;9.03;78.16;100702.52;106037;1289;61013;-79
2022/11/14 10:48:16;;;;;;;13.30;6.80;;;;;;;9.08;77.81;100704.36;106107;1281;61591;-77
2022/11/14 10:51:35;;;;;;;13.70;6.60;;;;;;;9.12;78.26;100701.45;106006;1292;71533;-78
2022/11/14 10:54:55;;;;;;;14.50;6.80;;;;;;;9.20;77.47;100702.57;106054;1284;69100;-79
2022/11/14 10:58:01;;;;;;;13.10;6.70;;;;;;;9.14;76.85;100693.20;106019;1291;72539;-80
2022/11/14 11:01:41;;;;;;;13.40;7.80;;;;;;;9.15;76.72;100695.43;106054;1289;59809;-79
2022/11/14 11:04:47;;;;;;;12.30;6.70;;;;;;;9.13;76.63;100686.02;106049;1285;61473;-78
2022/11/14 11:11:54;;;;;;;14.30;7.20;;;;;;;9.14;76.55;100676.55;106055;1289;67868;-78
2022/11/14 11:15:30;;;;;;;15.20;8.00;;;;;;;9.14;76.53;100678.28;105975;1297;73887;-79
2022/11/14 11:18:37;;;;;;;18.40;7.90;;;;;;;9.13;76.40;100675.02;105973;1292;59602;-74
2022/11/14 11:21:50;;;;;;;14.10;8.10;;;;;;;9.08;76.44;100674.10;106066;1288;58997;-74
2022/11/14 11:24:57;;;;;;;13.00;6.30;;;;;;;9.03;77.08;100668.54;106056;1291;71415;-73
2022/11/14 11:28:11;;;;;;;15.80;8.40;;;;;;;8.85;77.46;100667.70;105320;1290;1015475;-74
2022/11/14 11:31:18;;;;;;;16.30;9.60;;;;;;;8.69;78.27;100664.58;106048;1289;71371;-73
2022/11/14 11:34:32;;;;;;;18.90;9.20;;;;;;;8.63;78.96;100665.98;106070;1289;59257;-77
2022/11/14 11:38:01;;;;;;;17.00;9.10;;;;;;;8.61;79.63;100667.20;105995;1282;59164;-77
2022/11/14 11:41:32;;;;;;;16.30;9.40;;;;;;;8.52;79.87;100660.45;106062;1290;73390;-77
2022/11/14 11:45:04;;;;;;;18.00;10.20;;;;;;;8.43;80.50;100657.60;106023;1288;67976;-75
2022/11/14 11:48:32;;;;;;;18.20;9.70;;;;;;;8.40;80.82;100657.93;106017;1290;71829;-76
2022/11/14 11:51:44;;;;;;;17.50;10.00;;;;;;;8.33;81.63;100653.63;105997;1292;58627;-78
2022/11/14 11:55:03;;;;;;;16.90;9.30;;;;;;;8.28;81.63;100646.64;105943;1284;60446;-77
2022/11/14 11:58:34;;;;;;;21.00;11.20;;;;;;;8.25;81.95;100642.20;106046;1289;72529;-79
2022/11/14 12:01:41;;;;;;;17.40;10.10;;;;;;;8.29;82.04;100637.20;105319;1282;1002945;-78
2022/11/14 12:04:50;;;;;;;19.10;10.70;;;;;;;8.37;82.25;100635.16;105982;1292;72599;-79
2022/11/14 12:08:03;;;;;;;18.70;11.00;;;;;;;8.42;82.51;100628.68;106087;1282;59325;-78
2022/11/14 12:11:17;;;;;;;17.70;10.20;;;;;;;8.40;82.24;100624.87;106058;1289;58827;-78
2022/11/14 12:15:01;;;;;;;17.20;9.10;;;;;;;8.35;82.60;100622.34;106024;1289;74263;-79
2022/11/14 12:18:34;;;;;;;18.00;9.90;;;;;;;8.29;83.03;100616.00;106076;1281;67720;-78
2022/11/14 12:22:09;;;;;;;18.70;11.40;;;;;;;8.22;83.07;100612.16;106017;1287;72693;-77
2022/11/14 12:25:41;;;;;;;20.60;12.30;;;;;;;8.22;83.31;100604.59;106050;1289;59074;-77
2022/11/14 12:29:31;;;;;;;21.60;11.90;;;;;;;8.23;83.38;100609.82;106042;1295;60347;-79
2022/11/14 12:32:42;;;;;;;20.10;11.30;;;;;;;8.14;82.96;100609.27;106047;1292;72486;-78
2022/11/14 12:35:56;;;;;;;18.30;10.10;;;;;;;8.02;83.14;100604.88;106015;1290;68077;-79
2022/11/14 12:39:03;;;;;;;18.80;10.10;;;;;;;7.92;83.66;100608.05;106016;1286;72758;-79
2022/11/14 12:42:13;;;;;;;22.20;12.00;;;;;;;7.83;84.22;100602.92;106048;1284;57646;-78
2022/11/14 12:45:40;;;;;;;20.20;12.10;;;;;;;7.70;84.98;100604.55;106049;1285;61505;-79
2022/11/14 12:48:47;;;;;;;20.20;11.40;;;;;;;7.55;86.04;100602.92;106061;1289;73068;-78
2022/11/14 12:51:53;;;;;;;19.20;11.20;;;;;;;7.47;85.90;100590.81;104583;1292;1002333;-79
2022/11/14 12:55:00;;;;;;;18.80;10.30;;;;;;;7.38;86.50;100588.56;106049;1292;71376;-78
2022/11/14 12:58:09;;;;;;;20.10;12.00;;;;;;;7.31;86.85;100578.66;104501;1292;1002771;-77
2022/11/14 13:01:25;;;;;;;22.70;12.30;;;;;;;7.34;87.27;100580.45;106047;1289;61555;-77
2022/11/14 13:05:16;;;;;;;21.30;11.90;;;;;;;7.36;87.53;100579.33;106014;1290;72050;-78
2022/11/14 13:09:05;;;;;;;20.80;11.70;;;;;;;7.35;87.90;100584.09;106002;1292;69100;-79
2022/11/14 13:22:52;;;;;;;20.50;10.80;;;;;;;7.18;89.09;100573.74;106067;1287;73006;-78
2022/11/14 13:26:12;;;;;;;22.90;12.00;;;;;;;7.17;89.48;100571.50;106050;1289;65469;-76
2022/11/14 13:29:37;;;;;;;24.70;13.40;;;;;;;7.14;89.37;100565.67;106059;1281;72492;-77
2022/11/14 13:32:43;;;;;;;19.20;10.90;;;;;;;7.05;89.96;100565.80;106059;1289;59795;-78
2022/11/14 13:35:55;;;;;;;22.30;12.50;;;;;;;6.97;90.28;100564.66;106040;1289;60108;-78
2022/11/14 13:39:08;;;;;;;19.80;11.10;;;;;;;6.93;90.60;100563.98;106021;1291;71869;-78
2022/11/14 13:42:43;;;;;;;22.30;12.30;;;;;;;6.88;91.13;100550.34;106076;1287;67831;-78
2022/11/14 13:46:17;;;;;;;24.50;12.80;;;;;;;6.81;91.04;100549.44;106010;1284;73171;-80
2022/11/14 13:49:48;;;;;;;20.60;12.30;;;;;;;6.82;90.83;100550.11;106030;1281;59559;-78
2022/11/14 13:52:55;;;;;;;18.40;10.50;;;;;;;6.79;91.15;100550.26;106029;1291;59678;-79
2022/11/14 13:56:03;;;;;;;19.50;10.90;;;;;;;6.72;91.37;100548.91;106067;1289;71522;-78
2022/11/14 14:00:00;;;;;;;16.30;9.20;;;;;;;6.63;91.09;100550.24;106073;1288;66746;-78
2022/11/14 14:03:53;;;;;;;18.40;11.20;;;;;;;6.57;91.52;100548.45;106047;1289;70534;-77
2022/11/14 14:07:05;;;;;;;19.50;11.80;;;;;;;6.55;91.17;100539.02;105996;1289;59573;-78
2022/11/14 14:10:30;;;;;;;18.50;10.00;;;;;;;6.49;91.43;100532.48;106085;1288;58991;-79
2022/11/14 14:14:25;;;;;;;18.40;11.40;;;;;;;6.43;92.06;100528.73;106051;1292;71416;-77
2022/11/14 14:18:10;;;;;;;20.20;12.10;;;;;;;6.37;92.51;100531.00;106035;1289;67614;-78
2022/11/14 14:21:47;;;;;;;18.70;11.20;;;;;;;6.32;93.16;100522.65;106034;1289;71851;-78
2022/11/14 14:25:33;;;;;;;21.90;13.40;;;;;;;6.25;94.01;100520.36;106043;1284;58476;-78
2022/11/14 14:29:12;;;;;;;20.30;13.30;;;;;;;6.20;94.63;100516.41;106047;1284;59033;-78
2022/11/14 14:32:19;;;;;;;17.80;10.00;;;;;;;6.17;94.99;100514.23;106089;1292;72126;-79
2022/11/14 14:35:31;;;;;;;22.90;13.60;;;;;;;6.17;94.80;100516.02;106056;1268;69048;-77
2022/11/14 14:38:46;;;;;;;22.90;14.90;;;;;;;6.18;94.86;100517.38;105980;1289;72460;-78
2022/11/14 14:41:57;;;;;;;23.90;14.90;;;;;;;6.17;94.67;100512.67;106054;1284;57744;-77
2022/11/14 14:45:12;;;;;;;23.20;13.30;;;;;;;6.20;94.47;100508.12;106067;1285;61140;-77
2022/11/14 14:48:26;;;;;;;23.90;14.30;;;;;;;6.21;94.58;100505.93;106050;1292;73063;-78
2022/11/14 14:51:37;;;;;;;21.60;13.40;;;;;;;6.23;94.66;100501.77;106056;1292;67392;-78
2022/11/14 14:54:54;;;;;;;24.00;14.00;;;;;;;6.26;94.40;100499.70;106052;1294;72513;-78